Time;durP1;ratioP1;P1;durP2;ratioP2;P2;SDS_P1;SDS_P2;PMS_P1;PMS_P2;Temp;Humidity;BMP_temperature;BMP_pressure;BME280_temperature;BME280_humidity;BME280_pressure;Samples;Min_cycle;Max_cycle;Signal;HPM_P1;HPM_P2
2023/09/01 00:00:33;;;;;;;3.38;1.48;;;;;;;;;;4998097;28;20076;-21
2023/09/01 00:02:59;;;;;;;4.28;1.73;;;;;;;;;;4997945;28;20042;-22
2023/09/01 00:05:26;;;;;;;2.67;1.60;;;;;;;;;;4997981;28;20014;-23
2023/09/01 00:07:52;;;;;;;2.33;1.48;;;;;;;;;;4998297;28;20026;-20
2023/09/01 00:10:18;;;;;;;4.63;1.80;;;;;;;;;;4998530;28;20048;-21
2023/09/01 00:12:44;;;;;;;5.45;1.48;;;;;;;;;;4997024;28;20138;-21
2023/09/01 00:15:10;;;;;;;3.03;1.40;;;;;;;;;;4998129;28;20095;-20
2023/09/01 00:17:36;;;;;;;1.80;1.08;;;;;;;;;;4996825;28;20034;-21
2023/09/01 00:20:03;;;;;;;3.10;1.77;;;;;;;;;;4997700;28;20034;-21
2023/09/01 00:22:30;;;;;;;3.10;1.40;;;;;;;;;;4997741;28;20030;-21
2023/09/01 00:24:56;;;;;;;3.35;2.42;;;;;;;;;;4997613;28;20014;-21
2023/09/01 00:27:22;;;;;;;3.38;1.30;;;;;;;;;;4997666;28;20026;-21
2023/09/01 00:29:48;;;;;;;3.05;1.50;;;;;;;;;;4997563;28;20458;-21
2023/09/01 00:32:14;;;;;;;4.05;1.40;;;;;;;;;;4997469;28;20057;-21
2023/09/01 00:34:40;;;;;;;2.15;1.50;;;;;;;;;;4997516;28;20026;-21
2023/09/01 00:37:06;;;;;;;2.42;1.10;;;;;;;;;;4997738;28;20038;-20
2023/09/01 00:39:32;;;;;;;2.70;1.48;;;;;;;;;;4997614;28;20038;-21
2023/09/01 00:41:59;;;;;;;2.67;1.23;;;;;;;;;;4997337;28;20521;-20
2023/09/01 00:44:25;;;;;;;1.85;1.30;;;;;;;;;;4997363;28;20062;-21
2023/09/01 00:46:51;;;;;;;2.92;1.52;;;;;;;;;;4997302;28;20026;-21
2023/09/01 00:49:18;;;;;;;2.30;1.45;;;;;;;;;;4997280;28;20019;-22
2023/09/01 00:51:46;;;;;;;2.53;1.50;;;;;;;;;;4997980;28;20037;-20
2023/09/01 00:54:13;;;;;;;1.58;1.42;;;;;;;;;;4997171;28;20030;-22
2023/09/01 00:56:40;;;;;;;6.15;1.88;;;;;;;;;;4997100;28;20045;-21
2023/09/01 00:59:06;;;;;;;2.33;1.50;;;;;;;;;;4997124;28;20468;-21
2023/09/01 01:01:32;;;;;;;1.98;1.50;;;;;;;;;;4996914;28;20034;-21
2023/09/01 01:04:00;;;;;;;2.22;1.50;;;;;;;;;;4995767;28;20432;-21
2023/09/01 01:06:32;;;;;;;2.65;1.30;;;;;;;;;;4996951;28;20027;-20
2023/09/01 01:09:10;;;;;;;3.80;1.25;;;;;;;;;;4996079;28;20030;-21
2023/09/01 01:11:49;;;;;;;3.58;1.40;;;;;;;;;;4996818;28;20496;-20
2023/09/01 01:14:19;;;;;;;4.13;1.50;;;;;;;;;;4995804;28;20470;-21
2023/09/01 01:16:46;;;;;;;2.15;1.20;;;;;;;;;;4996804;28;20045;-21
2023/09/01 01:19:23;;;;;;;2.22;1.55;;;;;;;;;;4996958;28;20030;-23
2023/09/01 01:21:51;;;;;;;3.25;1.58;;;;;;;;;;4996839;28;20041;-21
2023/09/01 01:24:17;;;;;;;4.95;1.70;;;;;;;;;;4995753;28;20462;-25
2023/09/01 01:26:43;;;;;;;1.67;1.48;;;;;;;;;;4996462;28;20070;-21
2023/09/01 01:29:09;;;;;;;4.70;1.40;;;;;;;;;;4996759;28;20026;-21
2023/09/01 01:31:35;;;;;;;3.15;1.42;;;;;;;;;;4996386;28;20041;-21
2023/09/01 01:34:07;;;;;;;3.35;1.52;;;;;;;;;;4996629;28;20365;-22
2023/09/01 01:36:38;;;;;;;1.55;1.13;;;;;;;;;;4996629;28;20034;-21
2023/09/01 01:39:09;;;;;;;2.22;2.13;;;;;;;;;;4996352;28;20026;-21
2023/09/01 01:41:35;;;;;;;;;;;;;;;;;;4997110;28;20026;-21
2023/09/01 01:44:02;;;;;;;5.18;2.70;;;;;;;;;;4996190;28;19905;-21
2023/09/01 01:46:29;;;;;;;4.57;1.40;;;;;;;;;;4996693;28;20030;-21
2023/09/01 01:48:55;;;;;;;1.63;1.25;;;;;;;;;;4996150;28;20428;-21
2023/09/01 01:51:21;;;;;;;2.58;1.40;;;;;;;;;;4996315;28;20042;-21
2023/09/01 01:53:47;;;;;;;4.72;1.52;;;;;;;;;;4995939;28;20117;-25
2023/09/01 01:56:15;;;;;;;3.53;1.42;;;;;;;;;;4995953;28;20026;-21
2023/09/01 01:58:41;;;;;;;3.42;1.33;;;;;;;;;;4995910;28;20030;-21
2023/09/01 02:01:07;;;;;;;1.20;1.05;;;;;;;;;;4996119;28;20037;-20
2023/09/01 02:03:34;;;;;;;1.20;1.10;;;;;;;;;;4995723;28;20105;-21
2023/09/01 02:06:00;;;;;;;2.90;1.33;;;;;;;;;;4995866;28;20077;-21
2023/09/01 02:08:27;;;;;;;2.25;1.33;;;;;;;;;;4995740;28;20026;-22
2023/09/01 02:10:53;;;;;;;2.05;1.20;;;;;;;;;;4994809;28;20045;-21
2023/09/01 02:13:19;;;;;;;5.90;1.45;;;;;;;;;;4995884;28;20389;-21
2023/09/01 02:15:52;;;;;;;4.07;1.30;;;;;;;;;;4995935;28;20350;-23
2023/09/01 02:18:19;;;;;;;2.65;1.65;;;;;;;;;;4995878;28;20022;-22
2023/09/01 02:20:45;;;;;;;1.33;1.23;;;;;;;;;;4994268;28;20085;-21
2023/09/01 02:23:13;;;;;;;1.42;1.33;;;;;;;;;;4995491;28;20041;-21
2023/09/01 02:25:39;;;;;;;2.70;1.25;;;;;;;;;;4995754;28;20027;-21
2023/09/01 02:28:06;;;;;;;2.63;1.50;;;;;;;;;;4994547;28;20062;-21
2023/09/01 02:30:32;;;;;;;2.70;1.50;;;;;;;;;;4995767;28;20035;-21
2023/09/01 02:32:58;;;;;;;2.17;1.75;;;;;;;;;;4995415;28;20033;-21
2023/09/01 02:35:25;;;;;;;1.40;1.25;;;;;;;;;;4995431;28;20518;-21
2023/09/01 02:37:51;;;;;;;2.55;1.40;;;;;;;;;;4995342;28;20042;-21
2023/09/01 02:40:17;;;;;;;2.20;1.15;;;;;;;;;;4995290;28;20465;-21
2023/09/01 02:42:43;;;;;;;3.65;1.33;;;;;;;;;;4995235;28;20037;-22
2023/09/01 02:45:13;;;;;;;6.32;2.80;;;;;;;;;;4994353;28;20030;-21
2023/09/01 02:47:40;;;;;;;1.92;1.00;;;;;;;;;;4995598;28;20101;-21
2023/09/01 02:50:07;;;;;;;1.42;1.30;;;;;;;;;;4995296;28;20110;-21
2023/09/01 02:52:33;;;;;;;2.05;1.63;;;;;;;;;;4995290;28;20042;-21
2023/09/01 02:55:00;;;;;;;2.42;1.20;;;;;;;;;;4995195;28;20027;-22
2023/09/01 02:57:26;;;;;;;1.30;1.20;;;;;;;;;;4995134;28;20450;-21
2023/09/01 02:59:53;;;;;;;2.72;1.40;;;;;;;;;;4995076;28;20026;-21
2023/09/01 03:02:19;;;;;;;1.23;1.00;;;;;;;;;;4995434;28;20029;-22
2023/09/01 03:04:46;;;;;;;2.17;1.20;;;;;;;;;;4995101;28;20030;-21
2023/09/01 03:07:12;;;;;;;2.78;1.25;;;;;;;;;;4995362;28;20401;-23
2023/09/01 03:09:38;;;;;;;1.13;1.08;;;;;;;;;;4995827;28;20529;-21
2023/09/01 03:12:04;;;;;;;2.33;1.30;;;;;;;;;;4994005;28;20441;-21
2023/09/01 03:14:30;;;;;;;1.38;1.00;;;;;;;;;;4995558;28;20396;-21
2023/09/01 03:16:56;;;;;;;5.82;1.73;;;;;;;;;;4994418;28;20030;-22
2023/09/01 03:19:22;;;;;;;3.90;1.20;;;;;;;;;;4995165;28;20038;-21
2023/09/01 03:21:49;;;;;;;3.65;1.75;;;;;;;;;;4994898;28;20022;-21
2023/09/01 03:24:15;;;;;;;1.17;1.08;;;;;;;;;;4995197;28;20058;-21
2023/09/01 03:26:41;;;;;;;1.45;1.10;;;;;;;;;;4995166;28;20090;-21
2023/09/01 03:29:07;;;;;;;1.17;1.13;;;;;;;;;;4994865;28;20019;-22
2023/09/01 03:31:33;;;;;;;1.88;1.35;;;;;;;;;;4993902;28;20034;-22
2023/09/01 03:33:59;;;;;;;2.42;1.67;;;;;;;;;;4997670;28;20117;-22
2023/09/01 03:36:26;;;;;;;2.53;1.30;;;;;;;;;;4998597;28;20026;-22
2023/09/01 03:38:55;;;;;;;6.43;2.67;;;;;;;;;;4998828;28;20039;-22
2023/09/01 03:41:21;;;;;;;3.10;1.40;;;;;;;;;;4997501;28;20136;-21
2023/09/01 03:43:47;;;;;;;3.60;1.55;;;;;;;;;;4998381;28;20034;-21
2023/09/01 03:46:13;;;;;;;1.25;1.15;;;;;;;;;;4998444;28;20458;-22
2023/09/01 03:48:39;;;;;;;2.10;1.42;;;;;;;;;;4998616;28;20101;-21
2023/09/01 03:51:13;;;;;;;2.50;1.50;;;;;;;;;;4998324;28;20044;-21
2023/09/01 03:53:39;;;;;;;2.17;1.63;;;;;;;;;;4998298;28;20101;-22
2023/09/01 03:56:09;;;;;;;2.25;1.40;;;;;;;;;;4998544;28;20109;-22
2023/09/01 03:58:37;;;;;;;2.10;1.15;;;;;;;;;;4997273;28;20402;-23
2023/09/01 04:01:08;;;;;;;1.27;1.20;;;;;;;;;;4998731;28;20045;-21
2023/09/01 04:03:34;;;;;;;;;;;;;;;;;;4998294;28;20050;-22
2023/09/01 04:06:00;;;;;;;2.85;1.38;;;;;;;;;;4997956;28;19973;-22
2023/09/01 04:08:26;;;;;;;3.78;1.40;;;;;;;;;;4997871;28;20046;-21
2023/09/01 04:10:52;;;;;;;1.25;1.20;;;;;;;;;;4997813;28;20346;-22
2023/09/01 04:13:18;;;;;;;1.65;1.15;;;;;;;;;;4997642;28;20101;-25
2023/09/01 04:15:44;;;;;;;1.30;1.13;;;;;;;;;;4997634;28;20030;-22
2023/09/01 04:18:10;;;;;;;1.48;1.38;;;;;;;;;;4997717;28;20413;-21
2023/09/01 04:20:36;;;;;;;1.60;1.20;;;;;;;;;;4997769;28;20026;-22
2023/09/01 04:23:03;;;;;;;1.98;1.35;;;;;;;;;;4997517;28;20121;-22
2023/09/01 04:25:29;;;;;;;4.03;1.38;;;;;;;;;;4996773;28;20034;-22
2023/09/01 04:27:55;;;;;;;1.98;1.13;;;;;;;;;;4997776;28;20037;-22
2023/09/01 04:30:21;;;;;;;2.90;0.95;;;;;;;;;;4997732;28;20030;-23
2023/09/01 04:32:47;;;;;;;1.75;1.23;;;;;;;;;;4997323;28;20449;-22
2023/09/01 04:35:13;;;;;;;6.65;2.08;;;;;;;;;;4996369;28;20089;-21
2023/09/01 04:37:39;;;;;;;2.30;1.30;;;;;;;;;;4997521;28;20026;-23
2023/09/01 04:40:07;;;;;;;1.55;1.13;;;;;;;;;;4997118;28;20033;-22
2023/09/01 04:42:33;;;;;;;1.30;1.20;;;;;;;;;;4997759;28;20481;-22
2023/09/01 04:44:59;;;;;;;2.00;1.25;;;;;;;;;;4996951;28;20472;-22
2023/09/01 04:47:27;;;;;;;1.70;1.15;;;;;;;;;;4997055;28;20030;-22
2023/09/01 04:49:53;;;;;;;1.52;1.42;;;;;;;;;;4997398;28;20494;-22
2023/09/01 04:52:19;;;;;;;2.03;1.42;;;;;;;;;;4996931;28;20037;-22
2023/09/01 04:54:45;;;;;;;1.77;1.10;;;;;;;;;;4996028;28;20030;-21
2023/09/01 04:57:11;;;;;;;1.42;1.17;;;;;;;;;;4996966;28;20034;-23
2023/09/01 04:59:37;;;;;;;1.25;1.00;;;;;;;;;;4997056;28;20037;-23
2023/09/01 05:02:03;;;;;;;3.53;1.20;;;;;;;;;;4996634;28;20041;-22
2023/09/01 05:04:30;;;;;;;2.83;1.08;;;;;;;;;;4996640;28;20089;-22
2023/09/01 05:06:56;;;;;;;3.25;1.08;;;;;;;;;;4997027;28;20097;-23
2023/09/01 05:09:22;;;;;;;1.60;1.30;;;;;;;;;;4996769;28;20114;-22
2023/09/01 05:11:48;;;;;;;1.60;1.48;;;;;;;;;;4996563;28;20038;-23
2023/09/01 05:14:15;;;;;;;2.63;1.10;;;;;;;;;;4996973;28;20027;-23
2023/09/01 05:16:41;;;;;;;3.40;1.27;;;;;;;;;;4996852;28;20027;-22
2023/09/01 05:19:07;;;;;;;3.05;1.08;;;;;;;;;;4996859;28;20457;-21
2023/09/01 05:21:33;;;;;;;1.45;1.30;;;;;;;;;;4996432;28;20030;-23
2023/09/01 05:23:59;;;;;;;1.67;1.40;;;;;;;;;;4995452;28;20311;-21
2023/09/01 05:26:25;;;;;;;8.93;1.25;;;;;;;;;;4996307;28;20030;-24
2023/09/01 05:28:51;;;;;;;1.95;1.00;;;;;;;;;;4996328;28;20022;-22
2023/09/01 05:31:18;;;;;;;1.77;1.20;;;;;;;;;;4996627;28;20470;-22
2023/09/01 05:33:44;;;;;;;1.45;1.00;;;;;;;;;;4996360;28;20057;-21
2023/09/01 05:36:10;;;;;;;2.40;1.35;;;;;;;;;;4996518;28;20397;-22
2023/09/01 05:38:36;;;;;;;2.78;1.13;;;;;;;;;;4996714;28;20358;-21
2023/09/01 05:41:05;;;;;;;2.65;1.13;;;;;;;;;;4995996;28;20042;-22
2023/09/01 05:43:31;;;;;;;3.00;1.10;;;;;;;;;;4996193;28;20509;-22
2023/09/01 05:45:59;;;;;;;4.90;1.25;;;;;;;;;;4995966;28;20041;-21
2023/09/01 05:48:26;;;;;;;1.35;1.25;;;;;;;;;;4995945;28;20022;-22
2023/09/01 05:50:52;;;;;;;4.50;1.50;;;;;;;;;;4996111;28;20405;-23
2023/09/01 05:53:18;;;;;;;1.80;1.25;;;;;;;;;;4995711;28;20027;-24
2023/09/01 05:55:44;;;;;;;6.10;1.70;;;;;;;;;;4994369;28;20037;-21
2023/09/01 05:58:10;;;;;;;5.10;1.38;;;;;;;;;;4996036;28;20038;-22
2023/09/01 06:00:36;;;;;;;3.70;2.20;;;;;;;;;;4995612;28;20038;-22
2023/09/01 06:03:03;;;;;;;5.55;1.27;;;;;;;;;;4995531;28;20039;-23
2023/09/01 06:05:30;;;;;;;2.35;1.38;;;;;;;;;;4995947;28;20443;-22
2023/09/01 06:07:56;;;;;;;3.50;1.40;;;;;;;;;;4995774;28;20342;-22
2023/09/01 06:10:22;;;;;;;3.90;1.20;;;;;;;;;;4995527;28;20030;-22
2023/09/01 06:12:48;;;;;;;4.07;1.50;;;;;;;;;;4995742;28;20358;-21
2023/09/01 06:15:14;;;;;;;2.47;1.77;;;;;;;;;;4995486;28;20031;-22
2023/09/01 06:17:40;;;;;;;2.40;1.42;;;;;;;;;;4995653;28;20026;-22
2023/09/01 06:20:07;;;;;;;3.90;1.63;;;;;;;;;;4995771;28;20468;-22
2023/09/01 06:22:33;;;;;;;2.83;2.25;;;;;;;;;;4995727;28;20445;-22
2023/09/01 06:25:00;;;;;;;4.05;1.42;;;;;;;;;;4995319;28;20033;-22
2023/09/01 06:27:26;;;;;;;4.88;1.80;;;;;;;;;;4995217;28;20030;-22
2023/09/01 06:29:55;;;;;;;2.22;1.20;;;;;;;;;;4995439;28;20361;-22
2023/09/01 06:32:21;;;;;;;10.60;2.22;;;;;;;;;;4995415;28;20057;-22
2023/09/01 06:34:47;;;;;;;10.30;1.35;;;;;;;;;;4994069;28;20378;-22
2023/09/01 06:37:13;;;;;;;8.40;1.23;;;;;;;;;;4995197;28;20038;-22
2023/09/01 06:39:39;;;;;;;10.68;1.85;;;;;;;;;;4994967;28;20361;-26
2023/09/01 06:42:06;;;;;;;4.25;1.63;;;;;;;;;;4995326;28;20034;-22
2023/09/01 06:44:32;;;;;;;5.47;1.45;;;;;;;;;;4995505;28;20045;-24
2023/09/01 06:46:59;;;;;;;12.50;1.65;;;;;;;;;;4994141;28;20026;-22
2023/09/01 06:49:25;;;;;;;5.90;2.25;;;;;;;;;;4995230;28;20026;-22
2023/09/01 06:51:51;;;;;;;4.07;1.80;;;;;;;;;;4995208;28;20377;-23
2023/09/01 06:54:17;;;;;;;3.67;1.25;;;;;;;;;;4995289;28;20438;-22
2023/09/01 06:56:43;;;;;;;2.22;1.27;;;;;;;;;;4994964;28;20034;-22
2023/09/01 06:59:09;;;;;;;3.13;1.33;;;;;;;;;;4995408;28;20326;-22
2023/09/01 07:01:35;;;;;;;2.05;1.55;;;;;;;;;;4995010;28;20022;-24
2023/09/01 07:04:04;;;;;;;6.13;1.88;;;;;;;;;;4995446;28;20335;-22
2023/09/01 07:06:30;;;;;;;3.25;1.35;;;;;;;;;;4995758;28;20434;-22
2023/09/01 07:08:56;;;;;;;2.53;1.38;;;;;;;;;;4997759;28;20050;-22
2023/09/01 07:11:22;;;;;;;1.80;1.42;;;;;;;;;;4998827;28;20042;-21
2023/09/01 07:13:49;;;;;;;18.40;1.67;;;;;;;;;;4998030;28;20369;-22
2023/09/01 07:16:15;;;;;;;5.55;2.10;;;;;;;;;;4998752;28;20496;-22
2023/09/01 07:18:41;;;;;;;6.75;1.52;;;;;;;;;;4998683;28;20068;-22
2023/09/01 07:21:07;;;;;;;6.55;1.30;;;;;;;;;;4998792;28;20172;-22
2023/09/01 07:23:33;;;;;;;3.28;1.17;;;;;;;;;;4998636;28;20414;-22
2023/09/01 07:26:00;;;;;;;3.30;1.30;;;;;;;;;;4998629;28;20030;-23
2023/09/01 07:28:26;;;;;;;6.93;1.50;;;;;;;;;;4998547;28;20027;-22
2023/09/01 07:30:53;;;;;;;2.78;1.25;;;;;;;;;;4998404;28;20041;-22
2023/09/01 07:33:19;;;;;;;2.85;1.15;;;;;;;;;;4998426;28;20092;-21
2023/09/01 07:35:46;;;;;;;2.22;1.48;;;;;;;;;;4998701;28;20030;-21
2023/09/01 07:38:12;;;;;;;3.30;1.42;;;;;;;;;;4998882;28;20084;-22
2023/09/01 07:40:39;;;;;;;1.75;1.60;;;;;;;;;;4998534;28;20100;-23
2023/09/01 07:43:05;;;;;;;2.42;1.42;;;;;;;;;;4997977;28;20072;-22
2023/09/01 07:45:31;;;;;;;5.78;1.58;;;;;;;;;;4998485;28;20023;-21
2023/09/01 07:47:57;;;;;;;6.85;1.85;;;;;;;;;;4997987;28;20402;-22
2023/09/01 07:50:23;;;;;;;3.33;1.42;;;;;;;;;;4997876;28;20341;-23
2023/09/01 07:52:52;;;;;;;5.18;1.48;;;;;;;;;;4998142;28;20089;-21
2023/09/01 07:55:19;;;;;;;3.50;1.80;;;;;;;;;;4997807;28;20023;-21
2023/09/01 07:57:45;;;;;;;3.47;1.30;;;;;;;;;;4997911;28;20069;-22
2023/09/01 08:00:11;;;;;;;4.68;1.95;;;;;;;;;;4997759;28;20041;-22
2023/09/01 08:02:37;;;;;;;1.30;1.20;;;;;;;;;;4997870;28;20026;-22
2023/09/01 08:05:05;;;;;;;3.83;1.75;;;;;;;;;;4997817;28;20485;-22
2023/09/01 08:07:31;;;;;;;4.82;1.42;;;;;;;;;;4997098;28;20105;-22
2023/09/01 08:10:00;;;;;;;5.20;1.00;;;;;;;;;;4998296;28;20026;-23
2023/09/01 08:12:28;;;;;;;5.25;1.67;;;;;;;;;;4997803;28;20086;-21
2023/09/01 08:14:54;;;;;;;7.13;1.45;;;;;;;;;;4998102;28;20382;-22
2023/09/01 08:17:21;;;;;;;2.38;1.30;;;;;;;;;;4997721;28;20524;-21
2023/09/01 08:19:47;;;;;;;5.78;1.60;;;;;;;;;;4997589;28;20061;-21
2023/09/01 08:22:14;;;;;;;6.55;1.05;;;;;;;;;;4997653;28;20046;-23
2023/09/01 08:24:40;;;;;;;2.60;1.30;;;;;;;;;;4996747;28;20076;-23
2023/09/01 08:27:06;;;;;;;6.45;1.35;;;;;;;;;;4997574;28;20032;-22
2023/09/01 08:29:32;;;;;;;4.50;1.60;;;;;;;;;;4997546;28;20018;-21
2023/09/01 08:32:00;;;;;;;2.63;1.10;;;;;;;;;;4997385;28;20026;-22
2023/09/01 08:34:27;;;;;;;5.97;1.73;;;;;;;;;;4997503;28;20026;-22
2023/09/01 08:36:53;;;;;;;7.65;1.60;;;;;;;;;;4997688;28;20031;-22
2023/09/01 08:39:19;;;;;;;4.38;1.60;;;;;;;;;;4997410;28;20061;-22
2023/09/01 08:41:45;;;;;;;2.28;1.30;;;;;;;;;;4997237;28;20105;-22
2023/09/01 08:44:12;;;;;;;2.80;1.90;;;;;;;;;;4997429;28;20361;-24
2023/09/01 08:46:39;;;;;;;1.67;1.58;;;;;;;;;;4997652;28;20366;-23
2023/09/01 08:49:06;;;;;;;3.25;0.98;;;;;;;;;;4997534;28;20160;-21
2023/09/01 08:51:32;;;;;;;6.03;1.20;;;;;;;;;;4997502;28;20022;-22
2023/09/01 08:54:00;;;;;;;4.53;1.67;;;;;;;;;;4997137;28;20022;-21
2023/09/01 08:56:26;;;;;;;2.80;1.20;;;;;;;;;;4997416;28;20030;-22
2023/09/01 08:58:52;;;;;;;4.75;1.30;;;;;;;;;;4997050;28;20061;-22
2023/09/01 09:01:18;;;;;;;4.90;2.45;;;;;;;;;;4996980;28;20028;-22
2023/09/01 09:03:44;;;;;;;4.32;1.70;;;;;;;;;;4996704;28;20046;-22
2023/09/01 09:06:14;;;;;;;2.10;1.45;;;;;;;;;;4997188;28;20022;-22
2023/09/01 09:08:41;;;;;;;9.63;1.55;;;;;;;;;;4997131;28;20018;-22
2023/09/01 09:11:14;;;;;;;2.17;1.77;;;;;;;;;;4997147;28;20038;-22
2023/09/01 09:13:40;;;;;;;2.03;1.38;;;;;;;;;;4996867;28;20018;-22
2023/09/01 09:16:11;;;;;;;3.05;1.20;;;;;;;;;;4996743;28;20030;-25
2023/09/01 09:18:41;;;;;;;8.48;1.60;;;;;;;;;;4996708;28;20084;-21
2023/09/01 09:21:34;;;;;;;3.80;1.23;;;;;;;;;;4996384;28;20030;-23
2023/09/01 09:24:01;;;;;;;3.00;1.20;;;;;;;;;;4994509;28;20026;-22
2023/09/01 09:26:28;;;;;;;2.67;1.50;;;;;;;;;;4996688;28;20026;-22
2023/09/01 09:28:54;;;;;;;4.93;1.25;;;;;;;;;;4996419;28;20018;-22
2023/09/01 09:31:36;;;;;;;5.68;1.50;;;;;;;;;;4995861;28;20022;-22
2023/09/01 09:34:18;;;;;;;3.83;1.50;;;;;;;;;;4996289;28;20034;-22
2023/09/01 09:36:45;;;;;;;5.38;1.75;;;;;;;;;;4996311;28;20034;-23
2023/09/01 09:39:24;;;;;;;4.72;1.55;;;;;;;;;;4995273;28;20027;-21
2023/09/01 09:41:51;;;;;;;3.22;1.55;;;;;;;;;;4995060;28;20026;-22
2023/09/01 09:44:29;;;;;;;2.95;1.10;;;;;;;;;;4996136;28;20031;-22
2023/09/01 09:46:56;;;;;;;4.55;1.77;;;;;;;;;;4996397;28;20030;-22
2023/09/01 09:49:23;;;;;;;1.33;1.17;;;;;;;;;;4996129;28;20076;-22
2023/09/01 09:51:50;;;;;;;1.35;1.02;;;;;;;;;;4995072;28;20508;-21
2023/09/01 09:54:19;;;;;;;3.40;1.30;;;;;;;;;;4996045;28;20041;-22
2023/09/01 09:56:48;;;;;;;3.50;1.38;;;;;;;;;;4996019;28;20033;-21
2023/09/01 09:59:16;;;;;;;2.35;1.10;;;;;;;;;;4996202;28;20365;-25
2023/09/01 10:01:44;;;;;;;3.95;1.40;;;;;;;;;;4995856;28;20030;-23
2023/09/01 10:04:10;;;;;;;3.55;1.17;;;;;;;;;;4995841;28;20121;-22
2023/09/01 10:06:37;;;;;;;4.43;1.30;;;;;;;;;;4996119;28;20101;-22
2023/09/01 10:09:04;;;;;;;7.57;1.25;;;;;;;;;;4994868;28;20113;-21
2023/09/01 10:11:30;;;;;;;8.00;2.25;;;;;;;;;;4995787;28;20034;-22
2023/09/01 10:13:57;;;;;;;8.20;1.73;;;;;;;;;;4995628;28;20104;-22
2023/09/01 10:16:24;;;;;;;3.72;1.02;;;;;;;;;;4995927;28;20049;-21
2023/09/01 10:18:52;;;;;;;5.63;1.40;;;;;;;;;;4995844;28;20034;-23
2023/09/01 10:21:18;;;;;;;1.63;1.08;;;;;;;;;;4996351;28;20084;-22
2023/09/01 10:23:45;;;;;;;2.60;1.10;;;;;;;;;;4995454;28;20022;-22
2023/09/01 10:26:24;;;;;;;5.57;1.27;;;;;;;;;;4995523;28;20026;-22
2023/09/01 10:28:54;;;;;;;5.40;1.23;;;;;;;;;;4995529;28;20050;-22
2023/09/01 10:31:20;;;;;;;1.73;1.05;;;;;;;;;;4995703;28;20034;-22
2023/09/01 10:33:46;;;;;;;1.75;1.20;;;;;;;;;;4995225;28;20026;-23
2023/09/01 10:36:13;;;;;;;2.08;1.33;;;;;;;;;;4995739;28;20354;-22
2023/09/01 10:38:40;;;;;;;5.68;1.50;;;;;;;;;;4995588;28;20037;-23
2023/09/01 10:41:07;;;;;;;5.57;1.90;;;;;;;;;;4995624;28;20030;-22
2023/09/01 10:43:39;;;;;;;9.10;1.58;;;;;;;;;;4995283;28;20022;-23
2023/09/01 10:46:14;;;;;;;8.55;2.15;;;;;;;;;;4995262;28;20045;-22
2023/09/01 10:48:50;;;;;;;4.95;1.83;;;;;;;;;;4995119;28;20030;-22
2023/09/01 10:51:26;;;;;;;9.30;1.35;;;;;;;;;;4994377;28;20042;-22
2023/09/01 10:53:53;;;;;;;10.90;1.60;;;;;;;;;;4995110;28;20118;-21
2023/09/01 10:56:20;;;;;;;8.18;1.75;;;;;;;;;;4995413;28;20038;-22
2023/09/01 10:58:50;;;;;;;5.32;1.40;;;;;;;;;;4995376;28;20034;-21
2023/09/01 11:01:30;;;;;;;7.00;1.35;;;;;;;;;;4995318;28;20062;-22
2023/09/01 11:04:16;;;;;;;4.82;1.27;;;;;;;;;;4994774;28;20047;-22
2023/09/01 11:06:58;;;;;;;2.45;1.02;;;;;;;;;;4994746;28;20118;-25
2023/09/01 11:09:33;;;;;;;3.63;1.75;;;;;;;;;;4995054;28;20023;-22
2023/09/01 11:12:00;;;;;;;2.70;1.20;;;;;;;;;;4993942;28;20026;-22
2023/09/01 11:14:26;;;;;;;2.00;1.40;;;;;;;;;;4995200;28;20037;-22
2023/09/01 11:16:52;;;;;;;4.03;1.45;;;;;;;;;;4994992;28;20397;-22
2023/09/01 11:19:18;;;;;;;7.97;1.48;;;;;;;;;;4994882;28;20041;-22
2023/09/01 11:21:46;;;;;;;8.40;2.05;;;;;;;;;;4995076;28;20031;-23
2023/09/01 11:24:13;;;;;;;6.82;1.33;;;;;;;;;;4995433;28;20066;-22
2023/09/01 11:26:39;;;;;;;6.20;1.30;;;;;;;;;;4994861;28;20049;-22
2023/09/01 11:29:11;;;;;;;9.82;2.20;;;;;;;;;;4995010;28;20040;-22
2023/09/01 11:31:41;;;;;;;8.20;1.45;;;;;;;;;;4994587;28;20466;-21
2023/09/01 11:34:07;;;;;;;6.35;1.70;;;;;;;;;;4994658;28;20382;-23
2023/09/01 11:36:34;;;;;;;9.43;1.30;;;;;;;;;;4994459;28;20034;-22
2023/09/01 11:39:00;;;;;;;4.10;1.02;;;;;;;;;;4995037;28;20026;-22
2023/09/01 11:41:27;;;;;;;5.03;1.52;;;;;;;;;;4993620;28;20450;-21
2023/09/01 11:43:54;;;;;;;8.63;1.50;;;;;;;;;;4994452;28;20061;-22
2023/09/01 11:46:33;;;;;;;3.28;1.42;;;;;;;;;;4994297;28;20033;-22
2023/09/01 11:48:59;;;;;;;4.18;1.35;;;;;;;;;;4994669;28;20033;-22
2023/09/01 11:51:37;;;;;;;7.22;1.20;;;;;;;;;;4994487;28;20030;-21
2023/09/01 11:54:03;;;;;;;4.97;1.80;;;;;;;;;;4995706;28;20038;-23
2023/09/01 11:56:29;;;;;;;5.50;1.30;;;;;;;;;;4998221;28;20104;-22
2023/09/01 11:58:58;;;;;;;3.80;1.30;;;;;;;;;;4997849;28;20053;-22
2023/09/01 12:01:24;;;;;;;2.78;1.15;;;;;;;;;;4997914;28;20105;-22
2023/09/01 12:03:52;;;;;;;2.05;1.10;;;;;;;;;;4996608;28;20046;-22
2023/09/01 12:06:22;;;;;;;3.15;1.17;;;;;;;;;;4998160;28;20052;-22
2023/09/01 12:08:48;;;;;;;6.10;1.05;;;;;;;;;;4998104;28;20444;-22
2023/09/01 12:11:15;;;;;;;7.75;1.52;;;;;;;;;;4996740;28;20026;-22
2023/09/01 12:13:45;;;;;;;8.43;1.05;;;;;;;;;;4997856;28;20577;-22
2023/09/01 12:16:20;;;;;;;5.13;1.33;;;;;;;;;;4997533;28;20434;-23
2023/09/01 12:18:46;;;;;;;9.52;1.13;;;;;;;;;;4997903;28;20330;-22
2023/09/01 12:21:12;;;;;;;1.50;1.02;;;;;;;;;;4996501;28;20034;-22
2023/09/01 12:23:48;;;;;;;3.00;0.95;;;;;;;;;;4997624;28;20026;-22
2023/09/01 12:26:14;;;;;;;3.60;1.05;;;;;;;;;;4996580;28;20353;-22
2023/09/01 12:28:41;;;;;;;3.80;0.90;;;;;;;;;;4996317;28;20018;-21
2023/09/01 12:31:08;;;;;;;4.38;1.75;;;;;;;;;;4997323;28;20034;-23
2023/09/01 12:33:35;;;;;;;3.22;1.23;;;;;;;;;;4997315;28;20084;-22
2023/09/01 12:36:02;;;;;;;2.13;1.50;;;;;;;;;;4996625;28;20034;-22
2023/09/01 12:38:28;;;;;;;3.17;1.10;;;;;;;;;;4997467;28;20054;-22
2023/09/01 12:40:54;;;;;;;9.65;1.02;;;;;;;;;;4997132;28;20073;-22
2023/09/01 12:43:20;;;;;;;10.70;1.48;;;;;;;;;;4996112;28;20025;-22
2023/09/01 12:45:46;;;;;;;5.85;1.40;;;;;;;;;;4997085;28;20405;-21
2023/09/01 12:48:15;;;;;;;14.27;1.38;;;;;;;;;;4997324;28;20393;-23
2023/09/01 12:50:45;;;;;;;6.88;1.23;;;;;;;;;;4997359;28;20038;-21
2023/09/01 12:53:11;;;;;;;12.10;2.80;;;;;;;;;;4997409;28;20357;-22
2023/09/01 12:55:38;;;;;;;6.32;1.80;;;;;;;;;;4997058;28;20417;-22
2023/09/01 12:58:04;;;;;;;6.25;1.33;;;;;;;;;;4997127;28;20031;-22
2023/09/01 13:00:30;;;;;;;6.75;1.88;;;;;;;;;;4997538;28;20030;-22
2023/09/01 13:02:57;;;;;;;1.50;1.17;;;;;;;;;;4996765;28;20038;-21
2023/09/01 13:05:23;;;;;;;2.17;1.20;;;;;;;;;;4997113;28;20018;-22
2023/09/01 13:07:49;;;;;;;2.53;1.30;;;;;;;;;;4995844;28;20472;-23
2023/09/01 13:10:16;;;;;;;3.25;1.00;;;;;;;;;;4996735;28;20026;-24
2023/09/01 13:12:43;;;;;;;2.35;1.10;;;;;;;;;;4996729;28;20358;-22
2023/09/01 13:15:10;;;;;;;9.80;1.38;;;;;;;;;;4996969;28;20026;-22
2023/09/01 13:17:36;;;;;;;4.93;1.45;;;;;;;;;;4996665;28;20034;-22
2023/09/01 13:20:04;;;;;;;2.78;1.20;;;;;;;;;;4995577;28;20022;-21
2023/09/01 13:22:30;;;;;;;8.05;1.77;;;;;;;;;;4996693;28;20026;-22
2023/09/01 13:24:56;;;;;;;2.13;1.20;;;;;;;;;;4996614;28;20022;-23
2023/09/01 13:27:23;;;;;;;3.40;1.08;;;;;;;;;;4996484;28;20038;-22
2023/09/01 13:29:49;;;;;;;8.73;1.40;;;;;;;;;;4996553;28;20022;-22
2023/09/01 13:32:15;;;;;;;3.28;1.40;;;;;;;;;;4996217;28;20042;-22
2023/09/01 13:34:42;;;;;;;5.78;0.98;;;;;;;;;;4996150;28;20402;-22
2023/09/01 13:37:11;;;;;;;2.65;0.95;;;;;;;;;;4996199;28;20026;-22
2023/09/01 13:39:38;;;;;;;7.57;1.50;;;;;;;;;;4996120;28;20033;-21
2023/09/01 13:42:04;;;;;;;5.95;1.40;;;;;;;;;;4995900;28;20457;-22
2023/09/01 13:44:31;;;;;;;7.65;1.27;;;;;;;;;;4996748;28;20041;-22
2023/09/01 13:46:57;;;;;;;9.40;1.20;;;;;;;;;;4996364;28;20023;-22
2023/09/01 13:49:23;;;;;;;6.50;1.52;;;;;;;;;;4996560;28;20037;-24
2023/09/01 13:51:49;;;;;;;5.50;1.52;;;;;;;;;;4995842;28;20062;-21
2023/09/01 13:54:15;;;;;;;8.18;1.48;;;;;;;;;;4996035;28;20034;-21
2023/09/01 13:56:41;;;;;;;3.65;1.15;;;;;;;;;;4995839;28;20033;-22
2023/09/01 13:59:08;;;;;;;5.93;1.10;;;;;;;;;;4994798;28;20138;-22
2023/09/01 14:01:34;;;;;;;9.55;1.35;;;;;;;;;;4996108;28;20026;-25
2023/09/01 14:04:02;;;;;;;6.72;1.23;;;;;;;;;;4995269;28;20109;-22
2023/09/01 14:06:28;;;;;;;5.15;1.70;;;;;;;;;;4996836;28;20122;-22
2023/09/01 14:08:54;;;;;;;1.73;1.25;;;;;;;;;;4996041;28;20358;-22
2023/09/01 14:11:20;;;;;;;2.53;1.40;;;;;;;;;;4996011;28;20085;-22
2023/09/01 14:13:46;;;;;;;4.70;1.67;;;;;;;;;;4995882;28;20101;-22
2023/09/01 14:16:12;;;;;;;5.40;1.20;;;;;;;;;;4995466;28;20030;-23
2023/09/01 14:18:40;;;;;;;6.93;1.20;;;;;;;;;;4995838;28;20027;-21
2023/09/01 14:21:06;;;;;;;1.92;1.52;;;;;;;;;;4995809;28;20030;-24
2023/09/01 14:23:32;;;;;;;4.30;1.27;;;;;;;;;;4995770;28;20030;-22
2023/09/01 14:25:58;;;;;;;6.82;1.77;;;;;;;;;;4995773;28;20034;-22
2023/09/01 14:28:24;;;;;;;4.82;1.20;;;;;;;;;;4995434;28;20026;-26
2023/09/01 14:30:51;;;;;;;10.02;1.80;;;;;;;;;;4995725;28;20373;-21
2023/09/01 14:33:17;;;;;;;9.88;1.80;;;;;;;;;;4995365;28;20034;-22
2023/09/01 14:35:48;;;;;;;8.43;1.70;;;;;;;;;;4995580;28;20062;-22
2023/09/01 14:38:14;;;;;;;5.90;1.27;;;;;;;;;;4995643;28;20050;-21
2023/09/01 14:40:40;;;;;;;2.08;0.90;;;;;;;;;;4995290;28;20524;-22
2023/09/01 14:43:06;;;;;;;5.72;2.08;;;;;;;;;;4995484;28;20036;-21